sensor_id;sensor_type;location;lat;lon;timestamp;pressure;altitude;pressure_sealevel;temperature;humidity
67434;BME280;54305;47.950;6.572;2023-05-09T00:01:17;94598.50;;;12.60;100.00
67434;BME280;54305;47.950;6.572;2023-05-09T00:03:43;94595.22;;;12.58;100.00
67434;BME280;54305;47.950;6.572;2023-05-09T00:06:08;94598.50;;;12.60;100.00
67434;BME280;54305;47.950;6.572;2023-05-09T00:08:34;94593.63;;;12.57;100.00
67434;BME280;54305;47.950;6.572;2023-05-09T00:11:00;94594.75;;;12.54;100.00
67434;BME280;54305;47.950;6.572;2023-05-09T00:13:25;94598.84;;;12.57;100.00
67434;BME280;54305;47.950;6.572;2023-05-09T00:15:51;94600.47;;;12.58;100.00
67434;BME280;54305;47.950;6.572;2023-05-09T00:18:18;94605.69;;;12.58;100.00
67434;BME280;54305;47.950;6.572;2023-05-09T00:20:43;94601.75;;;12.62;100.00
67434;BME280;54305;47.950;6.572;2023-05-09T00:23:09;94598.16;;;12.63;100.00
67434;BME280;54305;47.950;6.572;2023-05-09T00:25:34;94594.59;;;12.64;100.00
67434;BME280;54305;47.950;6.572;2023-05-09T00:27:59;94590.84;;;12.66;100.00
67434;BME280;54305;47.950;6.572;2023-05-09T00:30:24;94591.47;;;12.68;100.00
67434;BME280;54305;47.950;6.572;2023-05-09T00:32:50;94592.09;;;12.70;100.00
67434;BME280;54305;47.950;6.572;2023-05-09T00:35:15;94592.63;;;12.66;100.00
67434;BME280;54305;47.950;6.572;2023-05-09T00:37:41;94589.00;;;12.67;100.00
67434;BME280;54305;47.950;6.572;2023-05-09T00:40:06;94585.75;;;12.65;100.00
67434;BME280;54305;47.950;6.572;2023-05-09T00:42:33;94586.41;;;12.67;100.00
67434;BME280;54305;47.950;6.572;2023-05-09T00:44:59;94579.38;;;12.67;100.00
67434;BME280;54305;47.950;6.572;2023-05-09T00:47:27;94579.72;;;12.64;100.00
67434;BME280;54305;47.950;6.572;2023-05-09T00:49:53;94566.47;;;12.66;100.00
67434;BME280;54305;47.950;6.572;2023-05-09T00:52:20;94564.88;;;12.65;100.00
67434;BME280;54305;47.950;6.572;2023-05-09T00:54:48;94560.94;;;12.69;100.00
67434;BME280;54305;47.950;6.572;2023-05-09T00:57:13;94569.41;;;12.71;100.00
67434;BME280;54305;47.950;6.572;2023-05-09T00:59:39;94574.31;;;12.66;100.00
67434;BME280;54305;47.950;6.572;2023-05-09T01:02:04;94570.09;;;12.65;100.00
67434;BME280;54305;47.950;6.572;2023-05-09T01:04:29;94566.84;;;12.55;100.00
67434;BME280;54305;47.950;6.572;2023-05-09T01:07:02;94560.84;;;12.38;100.00
67434;BME280;54305;47.950;6.572;2023-05-09T01:14:29;94544.03;;;12.41;100.00
67434;BME280;54305;47.950;6.572;2023-05-09T01:22:14;94535.84;;;12.44;100.00
67434;BME280;54305;47.950;6.572;2023-05-09T01:27:20;94525.38;;;12.52;100.00
67434;BME280;54305;47.950;6.572;2023-05-09T01:29:47;94522.75;;;12.52;100.00
67434;BME280;54305;47.950;6.572;2023-05-09T01:32:13;94512.97;;;12.54;100.00
67434;BME280;54305;47.950;6.572;2023-05-09T01:34:40;94517.22;;;12.55;100.00
67434;BME280;54305;47.950;6.572;2023-05-09T01:37:07;94513.63;;;12.56;100.00
67434;BME280;54305;47.950;6.572;2023-05-09T01:39:32;94513.63;;;12.56;100.00
67434;BME280;54305;47.950;6.572;2023-05-09T01:41:59;94504.16;;;12.47;100.00
67434;BME280;54305;47.950;6.572;2023-05-09T01:44:26;94512.69;;;12.41;100.00
67434;BME280;54305;47.950;6.572;2023-05-09T01:46:53;94506.16;;;12.45;100.00
67434;BME280;54305;47.950;6.572;2023-05-09T01:49:19;94511.00;;;12.48;100.00
67434;BME280;54305;47.950;6.572;2023-05-09T01:51:44;94513.97;;;12.45;100.00
67434;BME280;54305;47.950;6.572;2023-05-09T01:54:11;94510.38;;;12.46;100.00
67434;BME280;54305;47.950;6.572;2023-05-09T01:56:36;94511.69;;;12.50;100.00
67434;BME280;54305;47.950;6.572;2023-05-09T01:59:01;94509.53;;;12.53;100.00
67434;BME280;54305;47.950;6.572;2023-05-09T02:01:27;94505.47;;;12.51;100.00
67434;BME280;54305;47.950;6.572;2023-05-09T02:03:54;94499.91;;;12.54;100.00
67434;BME280;54305;47.950;6.572;2023-05-09T02:06:21;94499.22;;;12.60;100.00
67434;BME280;54305;47.950;6.572;2023-05-09T02:08:47;94505.25;;;12.60;100.00
67434;BME280;54305;47.950;6.572;2023-05-09T02:11:13;94505.22;;;12.76;100.00
67434;BME280;54305;47.950;6.572;2023-05-09T02:13:38;94504.38;;;12.76;100.00
67434;BME280;54305;47.950;6.572;2023-05-09T02:16:04;94518.13;;;12.70;100.00
67434;BME280;54305;47.950;6.572;2023-05-09T02:18:30;94510.97;;;12.64;100.00
67434;BME280;54305;47.950;6.572;2023-05-09T02:20:56;94513.28;;;12.59;100.00
67434;BME280;54305;47.950;6.572;2023-05-09T02:23:21;94509.69;;;12.52;100.00
67434;BME280;54305;47.950;6.572;2023-05-09T02:25:47;94507.78;;;12.46;100.00
67434;BME280;54305;47.950;6.572;2023-05-09T02:28:12;94502.53;;;12.46;100.00
67434;BME280;54305;47.950;6.572;2023-05-09T02:30:39;94504.69;;;12.42;100.00
67434;BME280;54305;47.950;6.572;2023-05-09T02:33:06;94501.09;;;12.35;100.00
67434;BME280;54305;47.950;6.572;2023-05-09T02:35:32;94504.84;;;12.41;100.00
67434;BME280;54305;47.950;6.572;2023-05-09T02:37:58;94499.63;;;12.41;100.00
67434;BME280;54305;47.950;6.572;2023-05-09T02:40:25;94495.41;;;12.32;100.00
67434;BME280;54305;47.950;6.572;2023-05-09T02:42:50;94493.09;;;12.37;100.00
67434;BME280;54305;47.950;6.572;2023-05-09T02:45:15;94497.03;;;12.33;100.00
67434;BME280;54305;47.950;6.572;2023-05-09T02:47:41;94491.00;;;12.32;100.00
67434;BME280;54305;47.950;6.572;2023-05-09T02:50:06;94490.31;;;12.38;100.00
67434;BME280;54305;47.950;6.572;2023-05-09T02:52:31;94486.72;;;12.39;100.00
67434;BME280;54305;47.950;6.572;2023-05-09T02:54:57;94479.34;;;12.51;100.00
67434;BME280;54305;47.950;6.572;2023-05-09T02:57:22;94492.72;;;12.48;100.00
67434;BME280;54305;47.950;6.572;2023-05-09T02:59:47;94493.09;;;12.37;100.00
67434;BME280;54305;47.950;6.572;2023-05-09T03:02:12;94493.13;;;12.29;100.00
67434;BME280;54305;47.950;6.572;2023-05-09T03:04:38;94495.72;;;12.29;100.00
67434;BME280;54305;47.950;6.572;2023-05-09T03:07:03;94502.09;;;12.26;100.00
67434;BME280;54305;47.950;6.572;2023-05-09T03:09:28;94493.47;;;12.18;100.00
67434;BME280;54305;47.950;6.572;2023-05-09T03:11:54;94500.69;;;12.16;100.00
67434;BME280;54305;47.950;6.572;2023-05-09T03:14:20;94491.84;;;12.17;100.00
67434;BME280;54305;47.950;6.572;2023-05-09T03:16:45;94495.09;;;12.19;100.00
67434;BME280;54305;47.950;6.572;2023-05-09T03:19:11;94493.78;;;12.15;100.00
67434;BME280;54305;47.950;6.572;2023-05-09T03:21:36;94488.56;;;12.15;100.00
67434;BME280;54305;47.950;6.572;2023-05-09T03:24:01;94492.81;;;12.24;100.00
67434;BME280;54305;47.950;6.572;2023-05-09T03:26:28;94482.72;;;12.21;100.00
67434;BME280;54305;47.950;6.572;2023-05-09T03:28:53;94487.25;;;12.19;100.00
67434;BME280;54305;47.950;6.572;2023-05-09T03:31:19;94489.56;;;12.14;100.00
67434;BME280;54305;47.950;6.572;2023-05-09T03:36:47;94479.47;;;12.11;100.00
67434;BME280;54305;47.950;6.572;2023-05-09T03:39:12;94472.28;;;12.13;100.00
67434;BME280;54305;47.950;6.572;2023-05-09T03:41:37;94477.19;;;12.08;100.00
67434;BME280;54305;47.950;6.572;2023-05-09T03:44:03;94470.00;;;12.10;100.00
67434;BME280;54305;47.950;6.572;2023-05-09T03:46:28;94464.78;;;12.10;100.00
67434;BME280;54305;47.950;6.572;2023-05-09T03:48:54;94460.22;;;12.04;100.00
67434;BME280;54305;47.950;6.572;2023-05-09T03:51:19;94458.28;;;12.06;100.00
67434;BME280;54305;47.950;6.572;2023-05-09T03:53:45;94461.19;;;12.11;100.00
67434;BME280;54305;47.950;6.572;2023-05-09T03:56:11;94465.47;;;11.88;100.00
67434;BME280;54305;47.950;6.572;2023-05-09T03:58:36;94464.19;;;11.92;100.00
67434;BME280;54305;47.950;6.572;2023-05-09T04:01:02;94468.25;;;11.86;100.00
67434;BME280;54305;47.950;6.572;2023-05-09T04:03:27;94464.66;;;11.87;100.00
67434;BME280;54305;47.950;6.572;2023-05-09T04:05:53;94460.59;;;11.93;100.00
67434;BME280;54305;47.950;6.572;2023-05-09T04:08:18;94458.59;;;11.95;100.00
67434;BME280;54305;47.950;6.572;2023-05-09T04:10:43;94456.00;;;11.95;100.00
67434;BME280;54305;47.950;6.572;2023-05-09T04:13:09;94469.19;;;11.93;100.00
67434;BME280;54305;47.950;6.572;2023-05-09T04:15:35;94453.44;;;11.87;100.00
67434;BME280;54305;47.950;6.572;2023-05-09T04:18:00;94455.03;;;11.88;100.00
67434;BME280;54305;47.950;6.572;2023-05-09T04:20:25;94455.34;;;11.93;100.00
67434;BME280;54305;47.950;6.572;2023-05-09T04:22:51;94447.69;;;11.91;100.00
67434;BME280;54305;47.950;6.572;2023-05-09T04:25:16;94450.47;;;11.98;100.00
67434;BME280;54305;47.950;6.572;2023-05-09T04:27:41;94456.66;;;11.89;100.00
67434;BME280;54305;47.950;6.572;2023-05-09T04:30:07;94455.88;;;11.72;100.00
67434;BME280;54305;47.950;6.572;2023-05-09T04:32:33;94448.56;;;11.68;100.00
67434;BME280;54305;47.950;6.572;2023-05-09T04:34:59;94447.22;;;11.80;100.00
67434;BME280;54305;47.950;6.572;2023-05-09T04:37:25;94454.06;;;11.81;100.00
67434;BME280;54305;47.950;6.572;2023-05-09T04:39:50;94453.44;;;11.79;100.00
67434;BME280;54305;47.950;6.572;2023-05-09T04:42:15;94451.63;;;11.79;100.00
67434;BME280;54305;47.950;6.572;2023-05-09T04:44:40;94456.34;;;11.84;100.00
67434;BME280;54305;47.950;6.572;2023-05-09T04:47:06;94453.06;;;11.90;100.00
67434;BME280;54305;47.950;6.572;2023-05-09T04:49:31;94447.53;;;11.93;100.00
67434;BME280;54305;47.950;6.572;2023-05-09T04:51:56;94450.94;;;12.01;100.00
67434;BME280;54305;47.950;6.572;2023-05-09T04:54:22;94449.78;;;12.04;100.00
67434;BME280;54305;47.950;6.572;2023-05-09T04:56:47;94455.16;;;12.10;100.00
67434;BME280;54305;47.950;6.572;2023-05-09T04:59:12;94442.88;;;12.19;100.00
67434;BME280;54305;47.950;6.572;2023-05-09T05:01:37;94443.50;;;12.29;100.00
67434;BME280;54305;47.950;6.572;2023-05-09T05:04:02;94435.31;;;12.40;100.00
67434;BME280;54305;47.950;6.572;2023-05-09T05:06:28;94431.66;;;12.49;100.00
67434;BME280;54305;47.950;6.572;2023-05-09T05:08:53;94439.31;;;12.58;100.00
67434;BME280;54305;47.950;6.572;2023-05-09T05:11:18;94437.13;;;12.70;100.00
67434;BME280;54305;47.950;6.572;2023-05-09T05:13:44;94435.81;;;12.74;100.00
67434;BME280;54305;47.950;6.572;2023-05-09T05:16:09;94440.63;;;12.85;100.00
67434;BME280;54305;47.950;6.572;2023-05-09T05:18:35;94441.09;;;12.88;100.00
67434;BME280;54305;47.950;6.572;2023-05-09T05:21:00;94433.88;;;12.98;100.00
67434;BME280;54305;47.950;6.572;2023-05-09T05:23:25;94434.31;;;13.10;100.00
67434;BME280;54305;47.950;6.572;2023-05-09T05:25:51;94429.31;;;13.23;100.00
67434;BME280;54305;47.950;6.572;2023-05-09T05:28:16;94421.88;;;13.34;100.00
67434;BME280;54305;47.950;6.572;2023-05-09T05:30:42;94421.63;;;13.44;100.00
67434;BME280;54305;47.950;6.572;2023-05-09T05:33:07;94423.19;;;13.53;100.00
67434;BME280;54305;47.950;6.572;2023-05-09T05:35:32;94422.75;;;13.64;100.00
67434;BME280;54305;47.950;6.572;2023-05-09T05:37:57;94422.41;;;13.67;100.00
67434;BME280;54305;47.950;6.572;2023-05-09T05:40:23;94411.22;;;13.73;100.00
67434;BME280;54305;47.950;6.572;2023-05-09T05:42:48;94407.38;;;13.83;100.00
67434;BME280;54305;47.950;6.572;2023-05-09T05:45:14;94406.75;;;13.96;100.00
67434;BME280;54305;47.950;6.572;2023-05-09T05:47:39;94405.22;;;14.01;100.00
67434;BME280;54305;47.950;6.572;2023-05-09T05:50:05;94406.94;;;14.09;100.00
67434;BME280;54305;47.950;6.572;2023-05-09T05:52:36;94407.41;;;14.27;100.00
67434;BME280;54305;47.950;6.572;2023-05-09T05:55:04;94405.13;;;14.38;100.00
67434;BME280;54305;47.950;6.572;2023-05-09T05:57:29;94405.69;;;14.34;100.00
67434;BME280;54305;47.950;6.572;2023-05-09T05:59:55;94404.22;;;14.17;100.00
67434;BME280;54305;47.950;6.572;2023-05-09T06:02:24;94403.16;;;14.26;100.00
67434;BME280;54305;47.950;6.572;2023-05-09T06:04:49;94397.72;;;14.42;100.00
67434;BME280;54305;47.950;6.572;2023-05-09T06:07:14;94385.44;;;14.57;100.00
67434;BME280;54305;47.950;6.572;2023-05-09T06:09:40;94389.19;;;14.69;100.00
67434;BME280;54305;47.950;6.572;2023-05-09T06:12:05;94391.16;;;14.81;100.00
67434;BME280;54305;47.950;6.572;2023-05-09T06:14:30;94384.63;;;14.92;100.00
67434;BME280;54305;47.950;6.572;2023-05-09T06:16:56;94386.97;;;15.08;100.00
67434;BME280;54305;47.950;6.572;2023-05-09T06:19:22;94379.00;;;15.16;100.00
67434;BME280;54305;47.950;6.572;2023-05-09T06:21:47;94385.63;;;15.12;100.00
67434;BME280;54305;47.950;6.572;2023-05-09T06:24:12;94380.38;;;15.12;100.00
67434;BME280;54305;47.950;6.572;2023-05-09T06:26:37;94375.25;;;15.25;100.00
67434;BME280;54305;47.950;6.572;2023-05-09T06:29:03;94375.97;;;15.19;100.00
67434;BME280;54305;47.950;6.572;2023-05-09T06:31:29;94373.25;;;15.27;100.00
67434;BME280;54305;47.950;6.572;2023-05-09T06:33:55;94371.69;;;14.90;100.00
67434;BME280;54305;47.950;6.572;2023-05-09T06:36:20;94371.69;;;15.32;100.00
67434;BME280;54305;47.950;6.572;2023-05-09T06:38:45;94371.81;;;15.45;100.00
67434;BME280;54305;47.950;6.572;2023-05-09T06:41:10;94362.31;;;15.72;100.00
67434;BME280;54305;47.950;6.572;2023-05-09T06:43:36;94357.47;;;15.69;100.00
67434;BME280;54305;47.950;6.572;2023-05-09T06:46:01;94355.88;;;15.68;100.00
67434;BME280;54305;47.950;6.572;2023-05-09T06:48:26;94353.38;;;15.60;100.00
67434;BME280;54305;47.950;6.572;2023-05-09T06:50:51;94359.63;;;15.86;100.00
67434;BME280;54305;47.950;6.572;2023-05-09T06:53:17;94345.59;;;15.73;100.00
67434;BME280;54305;47.950;6.572;2023-05-09T06:55:42;94346.06;;;16.17;100.00
67434;BME280;54305;47.950;6.572;2023-05-09T06:58:08;94350.53;;;16.23;100.00
67434;BME280;54305;47.950;6.572;2023-05-09T07:00:33;94338.94;;;16.11;100.00
67434;BME280;54305;47.950;6.572;2023-05-09T07:02:58;94338.31;;;16.09;100.00
67434;BME280;54305;47.950;6.572;2023-05-09T07:05:23;94334.91;;;16.15;100.00
67434;BME280;54305;47.950;6.572;2023-05-09T07:07:49;94330.97;;;16.32;100.00
67434;BME280;54305;47.950;6.572;2023-05-09T07:10:14;94329.75;;;16.34;100.00
67434;BME280;54305;47.950;6.572;2023-05-09T07:12:39;94325.56;;;16.06;100.00
67434;BME280;54305;47.950;6.572;2023-05-09T07:15:05;94322.94;;;16.06;100.00
67434;BME280;54305;47.950;6.572;2023-05-09T07:17:30;94323.09;;;15.64;100.00
67434;BME280;54305;47.950;6.572;2023-05-09T07:19:56;94316.78;;;15.86;100.00
67434;BME280;54305;47.950;6.572;2023-05-09T07:22:21;94314.78;;;16.35;100.00
67434;BME280;54305;47.950;6.572;2023-05-09T07:24:47;94317.28;;;16.43;100.00
67434;BME280;54305;47.950;6.572;2023-05-09T07:27:12;94311.72;;;16.25;100.00
67434;BME280;54305;47.950;6.572;2023-05-09T07:29:37;94310.56;;;15.93;100.00
67434;BME280;54305;47.950;6.572;2023-05-09T07:32:03;94305.47;;;15.92;100.00
67434;BME280;54305;47.950;6.572;2023-05-09T07:34:28;94300.00;;;15.80;100.00
67434;BME280;54305;47.950;6.572;2023-05-09T07:36:53;94297.28;;;15.19;100.00
67434;BME280;54305;47.950;6.572;2023-05-09T07:39:18;94292.75;;;15.06;100.00
67434;BME280;54305;47.950;6.572;2023-05-09T07:41:44;94295.03;;;15.37;100.00
67434;BME280;54305;47.950;6.572;2023-05-09T07:44:09;94288.75;;;15.59;100.00
67434;BME280;54305;47.950;6.572;2023-05-09T07:46:35;94294.06;;;15.72;100.00
67434;BME280;54305;47.950;6.572;2023-05-09T07:49:01;94290.47;;;15.79;100.00
67434;BME280;54305;47.950;6.572;2023-05-09T07:51:27;94295.16;;;15.50;100.00
67434;BME280;54305;47.950;6.572;2023-05-09T07:53:52;94284.63;;;15.29;100.00
67434;BME280;54305;47.950;6.572;2023-05-09T07:56:20;94282.56;;;15.39;100.00
67434;BME280;54305;47.950;6.572;2023-05-09T07:58:46;94278.66;;;15.62;100.00
67434;BME280;54305;47.950;6.572;2023-05-09T08:01:11;94270.97;;;15.95;100.00
67434;BME280;54305;47.950;6.572;2023-05-09T08:03:37;94277.84;;;15.62;100.00
67434;BME280;54305;47.950;6.572;2023-05-09T08:06:02;94269.38;;;15.60;100.00
67434;BME280;54305;47.950;6.572;2023-05-09T08:08:28;94266.88;;;15.52;100.00
67434;BME280;54305;47.950;6.572;2023-05-09T08:10:53;94255.91;;;15.76;100.00
67434;BME280;54305;47.950;6.572;2023-05-09T08:13:18;94255.63;;;15.98;100.00
67434;BME280;54305;47.950;6.572;2023-05-09T08:15:44;94256.84;;;15.62;100.00
67434;BME280;54305;47.950;6.572;2023-05-09T08:18:09;94251.13;;;15.52;100.00
67434;BME280;54305;47.950;6.572;2023-05-09T08:20:34;94238.09;;;15.65;100.00
67434;BME280;54305;47.950;6.572;2023-05-09T08:23:00;94242.78;;;15.76;100.00
67434;BME280;54305;47.950;6.572;2023-05-09T08:25:25;94240.47;;;15.94;100.00
67434;BME280;54305;47.950;6.572;2023-05-09T08:27:50;94242.81;;;15.82;100.00
67434;BME280;54305;47.950;6.572;2023-05-09T08:30:16;94233.94;;;15.83;100.00
67434;BME280;54305;47.950;6.572;2023-05-09T08:32:41;94228.19;;;16.14;100.00
67434;BME280;54305;47.950;6.572;2023-05-09T08:35:06;94231.78;;;16.47;100.00
67434;BME280;54305;47.950;6.572;2023-05-09T08:37:33;94224.78;;;16.20;100.00
67434;BME280;54305;47.950;6.572;2023-05-09T08:39:58;94228.81;;;16.16;100.00
67434;BME280;54305;47.950;6.572;2023-05-09T08:42:24;94235.72;;;16.30;100.00
67434;BME280;54305;47.950;6.572;2023-05-09T08:44:50;94228.41;;;16.79;100.00
67434;BME280;54305;47.950;6.572;2023-05-09T08:47:15;94221.28;;;17.12;100.00
67434;BME280;54305;47.950;6.572;2023-05-09T08:49:41;94219.03;;;16.50;100.00
67434;BME280;54305;47.950;6.572;2023-05-09T08:52:06;94216.78;;;16.47;100.00
67434;BME280;54305;47.950;6.572;2023-05-09T08:54:32;94213.59;;;16.65;100.00
67434;BME280;54305;47.950;6.572;2023-05-09T08:56:57;94215.25;;;16.79;100.00
67434;BME280;54305;47.950;6.572;2023-05-09T08:59:24;94214.81;;;16.69;100.00
67434;BME280;54305;47.950;6.572;2023-05-09T09:01:52;94207.94;;;16.55;100.00
67434;BME280;54305;47.950;6.572;2023-05-09T09:04:17;94205.13;;;16.82;100.00
67434;BME280;54305;47.950;6.572;2023-05-09T09:06:42;94201.06;;;17.06;100.00
67434;BME280;54305;47.950;6.572;2023-05-09T09:09:08;94195.38;;;17.48;100.00
67434;BME280;54305;47.950;6.572;2023-05-09T09:11:35;94194.44;;;17.80;100.00
67434;BME280;54305;47.950;6.572;2023-05-09T09:14:05;94188.44;;;17.60;100.00
67434;BME280;54305;47.950;6.572;2023-05-09T09:16:31;94187.22;;;17.56;100.00
67434;BME280;54305;47.950;6.572;2023-05-09T09:18:57;94185.66;;;17.29;100.00
67434;BME280;54305;47.950;6.572;2023-05-09T09:21:22;94184.88;;;16.83;100.00
67434;BME280;54305;47.950;6.572;2023-05-09T09:23:48;94177.19;;;17.14;100.00
67434;BME280;54305;47.950;6.572;2023-05-09T09:26:13;94172.69;;;17.27;100.00
67434;BME280;54305;47.950;6.572;2023-05-09T09:28:39;94169.09;;;17.15;100.00
67434;BME280;54305;47.950;6.572;2023-05-09T09:33:48;94169.91;;;16.90;100.00
67434;BME280;54305;47.950;6.572;2023-05-09T09:36:13;94155.31;;;17.00;100.00
67434;BME280;54305;47.950;6.572;2023-05-09T09:38:39;94155.47;;;17.31;100.00
67434;BME280;54305;47.950;6.572;2023-05-09T09:41:05;94148.00;;;17.41;100.00
67434;BME280;54305;47.950;6.572;2023-05-09T09:43:31;94148.38;;;17.32;100.00
67434;BME280;54305;47.950;6.572;2023-05-09T09:45:56;94153.09;;;16.91;100.00
67434;BME280;54305;47.950;6.572;2023-05-09T09:48:25;94143.59;;;16.83;100.00
67434;BME280;54305;47.950;6.572;2023-05-09T09:50:52;94132.25;;;16.96;100.00
67434;BME280;54305;47.950;6.572;2023-05-09T09:53:18;94134.44;;;17.12;100.00
67434;BME280;54305;47.950;6.572;2023-05-09T09:55:50;94133.66;;;17.18;100.00
67434;BME280;54305;47.950;6.572;2023-05-09T09:58:16;94139.16;;;16.58;100.00
67434;BME280;54305;47.950;6.572;2023-05-09T10:00:42;94127.00;;;17.09;100.00
67434;BME280;54305;47.950;6.572;2023-05-09T10:03:12;94126.81;;;17.74;100.00
67434;BME280;54305;47.950;6.572;2023-05-09T10:05:38;94121.03;;;17.46;100.00
67434;BME280;54305;47.950;6.572;2023-05-09T10:08:04;94116.28;;;16.91;100.00
67434;BME280;54305;47.950;6.572;2023-05-09T10:10:32;94111.53;;;17.32;100.00
67434;BME280;54305;47.950;6.572;2023-05-09T10:13:00;94103.78;;;17.56;100.00
67434;BME280;54305;47.950;6.572;2023-05-09T10:15:26;94103.75;;;17.63;100.00
67434;BME280;54305;47.950;6.572;2023-05-09T10:17:56;94102.44;;;17.85;100.00
67434;BME280;54305;47.950;6.572;2023-05-09T10:20:22;94094.31;;;17.49;100.00
67434;BME280;54305;47.950;6.572;2023-05-09T10:22:47;94102.31;;;16.90;100.00
67434;BME280;54305;47.950;6.572;2023-05-09T10:25:13;94094.19;;;17.05;100.00
67434;BME280;54305;47.950;6.572;2023-05-09T10:27:43;94088.84;;;17.31;100.00
67434;BME280;54305;47.950;6.572;2023-05-09T10:30:18;94086.41;;;17.42;100.00
67434;BME280;54305;47.950;6.572;2023-05-09T10:33:02;94082.91;;;17.61;100.00
67434;BME280;54305;47.950;6.572;2023-05-09T10:35:49;94078.03;;;17.58;100.00
67434;BME280;54305;47.950;6.572;2023-05-09T10:38:13;94079.50;;;17.92;100.00
67434;BME280;54305;47.950;6.572;2023-05-09T10:40:40;94080.59;;;17.78;100.00
67434;BME280;54305;47.950;6.572;2023-05-09T10:43:06;94071.09;;;18.08;97.34
67434;BME280;54305;47.950;6.572;2023-05-09T10:45:31;94070.41;;;17.88;100.00
67434;BME280;54305;47.950;6.572;2023-05-09T10:47:57;94061.31;;;18.15;98.29
67434;BME280;54305;47.950;6.572;2023-05-09T10:50:23;94054.56;;;18.19;97.65
67434;BME280;54305;47.950;6.572;2023-05-09T10:58:23;94043.22;;;16.93;100.00
67434;BME280;54305;47.950;6.572;2023-05-09T11:00:49;94043.13;;;17.25;94.71
67434;BME280;54305;47.950;6.572;2023-05-09T11:03:15;94037.75;;;17.89;98.10
67434;BME280;54305;47.950;6.572;2023-05-09T11:05:43;94036.03;;;18.32;94.76
67434;BME280;54305;47.950;6.572;2023-05-09T11:10:46;94036.34;;;17.86;94.52
67434;BME280;54305;47.950;6.572;2023-05-09T11:13:11;94038.03;;;17.81;98.50
67434;BME280;54305;47.950;6.572;2023-05-09T11:16:22;94034.81;;;17.72;99.54
67434;BME280;54305;47.950;6.572;2023-05-09T11:18:22;94027.41;;;17.56;98.74
67434;BME280;54305;47.950;6.572;2023-05-09T11:20:48;94018.03;;;17.98;100.00
67434;BME280;54305;47.950;6.572;2023-05-09T11:23:17;94030.19;;;17.68;100.00
67434;BME280;54305;47.950;6.572;2023-05-09T11:25:44;94015.91;;;17.51;99.54
67434;BME280;54305;47.950;6.572;2023-05-09T11:28:09;94017.94;;;17.49;100.00
67434;BME280;54305;47.950;6.572;2023-05-09T11:30:49;94008.47;;;17.41;99.05
67434;BME280;54305;47.950;6.572;2023-05-09T11:33:23;94001.06;;;17.19;96.61
67434;BME280;54305;47.950;6.572;2023-05-09T11:38:42;94005.00;;;17.34;100.00
67434;BME280;54305;47.950;6.572;2023-05-09T11:41:07;94001.63;;;17.65;96.81
67434;BME280;54305;47.950;6.572;2023-05-09T11:43:34;93998.25;;;17.07;99.89
67434;BME280;54305;47.950;6.572;2023-05-09T11:46:00;93992.91;;;17.27;100.00
67434;BME280;54305;47.950;6.572;2023-05-09T11:48:26;93988.81;;;17.44;99.05
67434;BME280;54305;47.950;6.572;2023-05-09T11:50:51;93990.44;;;17.32;100.00
67434;BME280;54305;47.950;6.572;2023-05-09T11:53:16;93988.47;;;17.21;100.00
67434;BME280;54305;47.950;6.572;2023-05-09T11:55:41;93986.00;;;17.32;100.00
67434;BME280;54305;47.950;6.572;2023-05-09T11:58:07;93982.81;;;17.24;100.00
67434;BME280;54305;47.950;6.572;2023-05-09T12:00:33;93972.63;;;17.34;100.00
67434;BME280;54305;47.950;6.572;2023-05-09T12:03:03;93984.34;;;17.44;100.00
67434;BME280;54305;47.950;6.572;2023-05-09T12:05:29;93983.69;;;17.05;99.27
67434;BME280;54305;47.950;6.572;2023-05-09T12:07:56;93977.19;;;17.14;100.00
67434;BME280;54305;47.950;6.572;2023-05-09T12:10:26;93976.50;;;16.81;100.00
67434;BME280;54305;47.950;6.572;2023-05-09T12:12:52;93969.63;;;16.80;100.00
67434;BME280;54305;47.950;6.572;2023-05-09T12:15:21;93971.28;;;16.68;100.00
67434;BME280;54305;47.950;6.572;2023-05-09T12:17:46;93971.69;;;16.65;100.00
67434;BME280;54305;47.950;6.572;2023-05-09T12:20:12;93976.13;;;16.64;100.00
67434;BME280;54305;47.950;6.572;2023-05-09T12:22:37;93964.03;;;16.44;100.00
67434;BME280;54305;47.950;6.572;2023-05-09T12:25:07;93960.16;;;16.66;100.00
67434;BME280;54305;47.950;6.572;2023-05-09T12:27:33;93962.75;;;16.79;100.00
67434;BME280;54305;47.950;6.572;2023-05-09T12:29:59;93965.25;;;16.48;100.00
67434;BME280;54305;47.950;6.572;2023-05-09T12:32:25;93962.44;;;16.43;100.00
67434;BME280;54305;47.950;6.572;2023-05-09T12:34:55;93953.91;;;16.54;100.00
67434;BME280;54305;47.950;6.572;2023-05-09T12:37:21;93950.22;;;16.68;100.00
67434;BME280;54305;47.950;6.572;2023-05-09T12:42:30;93949.09;;;16.25;100.00
67434;BME280;54305;47.950;6.572;2023-05-09T12:44:56;93946.69;;;16.17;100.00
67434;BME280;54305;47.950;6.572;2023-05-09T12:47:24;93950.94;;;16.05;100.00
67434;BME280;54305;47.950;6.572;2023-05-09T12:49:50;93951.13;;;15.77;100.00
67434;BME280;54305;47.950;6.572;2023-05-09T12:52:16;93961.19;;;15.35;100.00
67434;BME280;54305;47.950;6.572;2023-05-09T12:54:42;93955.88;;;15.28;100.00
67434;BME280;54305;47.950;6.572;2023-05-09T12:57:18;93958.66;;;14.60;100.00
67434;BME280;54305;47.950;6.572;2023-05-09T12:59:44;93967.28;;;14.48;100.00
67434;BME280;54305;47.950;6.572;2023-05-09T13:02:09;93966.34;;;14.28;100.00
67434;BME280;54305;47.950;6.572;2023-05-09T13:04:34;93975.31;;;14.19;100.00
67434;BME280;54305;47.950;6.572;2023-05-09T13:06:59;93970.81;;;14.34;100.00
67434;BME280;54305;47.950;6.572;2023-05-09T13:09:25;93971.97;;;14.25;100.00
67434;BME280;54305;47.950;6.572;2023-05-09T13:11:53;93963.44;;;14.16;100.00
67434;BME280;54305;47.950;6.572;2023-05-09T13:14:19;93958.00;;;14.45;100.00
67434;BME280;54305;47.950;6.572;2023-05-09T13:16:45;93954.69;;;14.37;100.00